createdAt,value
2023-05-04T00:00:00.000Z,9.34
2023-05-04T00:15:00.000Z,9.15
2023-05-04T00:30:00.000Z,9.07
2023-05-04T00:45:00.000Z,8.95
2023-05-04T01:00:00.000Z,8.55
2023-05-04T01:15:00.000Z,8.31
2023-05-04T01:30:00.000Z,8.36
2023-05-04T01:45:00.000Z,8.3
2023-05-04T02:00:00.000Z,8.25
2023-05-04T02:15:00.000Z,8.09
2023-05-04T02:30:00.000Z,7.73
2023-05-04T02:45:00.000Z,7.7
2023-05-04T03:00:00.000Z,7.79
2023-05-04T03:15:00.000Z,7.5
2023-05-04T03:30:00.000Z,7.36
2023-05-04T03:45:00.000Z,7.17
2023-05-04T04:00:00.000Z,7.22
2023-05-04T04:15:00.000Z,7.31
2023-05-04T04:30:00.000Z,7.91
2023-05-04T04:45:00.000Z,9.06
2023-05-04T05:00:00.000Z,9.52
2023-05-04T05:15:00.000Z,10.04
2023-05-04T05:30:00.000Z,10.65
2023-05-04T05:45:00.000Z,11.27
2023-05-04T06:00:00.000Z,11.74
2023-05-04T06:15:00.000Z,12.26
2023-05-04T06:30:00.000Z,13.88
2023-05-04T06:45:00.000Z,16.11
2023-05-04T07:00:00.000Z,19.76
2023-05-04T07:15:00.000Z,20.89
2023-05-04T07:30:00.000Z,22.39
2023-05-04T07:45:00.000Z,22.6
2023-05-04T08:00:00.000Z,23.25
2023-05-04T08:15:00.000Z,23.53
2023-05-04T08:30:00.000Z,24.46
2023-05-04T08:45:00.000Z,24.04
2023-05-04T09:00:00.000Z,23.48
2023-05-04T09:15:00.000Z,23.88
2023-05-04T09:30:00.000Z,24.67
2023-05-04T09:45:00.000Z,24.93
2023-05-04T10:00:00.000Z,25.16
2023-05-04T10:15:00.000Z,24.74
2023-05-04T10:30:00.000Z,24.49
2023-05-04T10:45:00.000Z,24.14
2023-05-04T11:00:00.000Z,24.19
2023-05-04T11:15:00.000Z,23.88
2023-05-04T11:30:00.000Z,23.23
2023-05-04T11:45:00.000Z,23.2
2023-05-04T12:00:00.000Z,22.68
2023-05-04T12:15:00.000Z,22.37
2023-05-04T12:30:00.000Z,22.36
2023-05-04T12:45:00.000Z,22.24
2023-05-04T13:00:00.000Z,22.2
2023-05-04T13:15:00.000Z,22.27
2023-05-04T13:30:00.000Z,22.14
2023-05-04T13:45:00.000Z,21.91
2023-05-04T14:00:00.000Z,21.79
2023-05-04T14:15:00.000Z,21.88
2023-05-04T14:30:00.000Z,21.76
2023-05-04T14:45:00.000Z,21.8
2023-05-04T15:00:00.000Z,21.7
2023-05-04T15:15:00.000Z,21.45
2023-05-04T15:30:00.000Z,21.2
2023-05-04T15:45:00.000Z,20.89
2023-05-04T16:00:00.000Z,20.55
2023-05-04T16:15:00.000Z,20.25
2023-05-04T16:30:00.000Z,19.99
2023-05-04T16:45:00.000Z,19.69
2023-05-04T17:00:00.000Z,19.21
2023-05-04T17:15:00.000Z,18.74
2023-05-04T17:30:00.000Z,18.26
2023-05-04T17:45:00.000Z,17.88
2023-05-04T18:00:00.000Z,17.45
2023-05-04T18:15:00.000Z,17.06
2023-05-04T18:30:00.000Z,16.71
2023-05-04T18:45:00.000Z,16.37
2023-05-04T19:00:00.000Z,16.14
2023-05-04T19:15:00.000Z,15.95
2023-05-04T19:30:00.000Z,15.55
2023-05-04T19:45:00.000Z,15.32
2023-05-04T20:00:00.000Z,14.81
2023-05-04T20:15:00.000Z,14.41
2023-05-04T20:30:00.000Z,14.01
2023-05-04T20:45:00.000Z,13.68
2023-05-04T21:00:00.000Z,13.47
2023-05-04T21:15:00.000Z,13.2
2023-05-04T21:30:00.000Z,13.08
2023-05-04T21:45:00.000Z,12.98
2023-05-04T22:00:00.000Z,12.64
2023-05-04T22:15:00.000Z,12.59
2023-05-04T22:30:00.000Z,12.56
2023-05-04T22:45:00.000Z,12.42
2023-05-04T23:00:00.000Z,12.17
2023-05-04T23:15:00.000Z,11.74
2023-05-04T23:30:00.000Z,11.75
2023-05-04T23:45:00.000Z,11.57
